sensor_id;sensor_type;location;lat;lon;timestamp;temperature;humidity
12436;DHT22;6282;51.440;6.938;2024-01-25T00:00:27;9.30;99.90
12436;DHT22;6282;51.440;6.938;2024-01-25T00:02:53;9.30;99.90
12436;DHT22;6282;51.440;6.938;2024-01-25T00:05:22;9.30;99.90
12436;DHT22;6282;51.440;6.938;2024-01-25T00:07:49;9.30;99.90
12436;DHT22;6282;51.440;6.938;2024-01-25T00:10:17;9.30;99.90
12436;DHT22;6282;51.440;6.938;2024-01-25T00:12:44;9.30;99.90
12436;DHT22;6282;51.440;6.938;2024-01-25T00:15:10;9.40;99.90
12436;DHT22;6282;51.440;6.938;2024-01-25T00:17:37;9.30;99.90
12436;DHT22;6282;51.440;6.938;2024-01-25T00:20:05;9.20;99.90
12436;DHT22;6282;51.440;6.938;2024-01-25T00:22:33;9.20;99.90
12436;DHT22;6282;51.440;6.938;2024-01-25T00:25:00;9.30;99.90
12436;DHT22;6282;51.440;6.938;2024-01-25T00:27:27;9.50;99.90
12436;DHT22;6282;51.440;6.938;2024-01-25T00:29:54;9.30;99.90
12436;DHT22;6282;51.440;6.938;2024-01-25T00:32:21;9.30;99.90
12436;DHT22;6282;51.440;6.938;2024-01-25T00:34:48;9.30;99.90
12436;DHT22;6282;51.440;6.938;2024-01-25T00:37:16;9.30;99.90
12436;DHT22;6282;51.440;6.938;2024-01-25T00:39:45;9.30;99.90
12436;DHT22;6282;51.440;6.938;2024-01-25T00:42:13;9.20;99.90
12436;DHT22;6282;51.440;6.938;2024-01-25T00:44:41;9.20;99.90
12436;DHT22;6282;51.440;6.938;2024-01-25T00:47:09;9.20;99.90
12436;DHT22;6282;51.440;6.938;2024-01-25T00:49:37;9.10;99.90
12436;DHT22;6282;51.440;6.938;2024-01-25T00:52:05;9.10;99.90
12436;DHT22;6282;51.440;6.938;2024-01-25T00:54:32;9.10;99.90
12436;DHT22;6282;51.440;6.938;2024-01-25T00:57:01;9.30;99.90
12436;DHT22;6282;51.440;6.938;2024-01-25T00:59:28;9.00;99.90
12436;DHT22;6282;51.440;6.938;2024-01-25T01:01:55;9.00;99.90
12436;DHT22;6282;51.440;6.938;2024-01-25T01:04:24;9.00;99.90
12436;DHT22;6282;51.440;6.938;2024-01-25T01:06:52;8.90;99.90
12436;DHT22;6282;51.440;6.938;2024-01-25T01:09:19;8.70;99.90
12436;DHT22;6282;51.440;6.938;2024-01-25T01:11:46;8.80;99.90
12436;DHT22;6282;51.440;6.938;2024-01-25T01:14:14;8.90;99.90
12436;DHT22;6282;51.440;6.938;2024-01-25T01:16:41;8.70;99.90
12436;DHT22;6282;51.440;6.938;2024-01-25T01:19:08;8.50;99.90
12436;DHT22;6282;51.440;6.938;2024-01-25T01:21:35;9.70;99.90
12436;DHT22;6282;51.440;6.938;2024-01-25T01:24:02;8.60;99.90
12436;DHT22;6282;51.440;6.938;2024-01-25T01:26:29;8.60;99.90
12436;DHT22;6282;51.440;6.938;2024-01-25T01:28:55;8.60;99.90
12436;DHT22;6282;51.440;6.938;2024-01-25T01:31:23;8.70;99.90
12436;DHT22;6282;51.440;6.938;2024-01-25T01:33:50;8.40;99.90
12436;DHT22;6282;51.440;6.938;2024-01-25T01:36:17;8.50;99.90
12436;DHT22;6282;51.440;6.938;2024-01-25T01:38:44;8.50;99.90
12436;DHT22;6282;51.440;6.938;2024-01-25T01:41:11;8.50;99.90
12436;DHT22;6282;51.440;6.938;2024-01-25T01:43:38;8.40;99.90
12436;DHT22;6282;51.440;6.938;2024-01-25T01:46:10;8.30;99.90
12436;DHT22;6282;51.440;6.938;2024-01-25T01:48:39;8.40;99.90
12436;DHT22;6282;51.440;6.938;2024-01-25T01:51:06;8.40;99.90
12436;DHT22;6282;51.440;6.938;2024-01-25T01:53:35;8.40;99.90
12436;DHT22;6282;51.440;6.938;2024-01-25T01:56:03;8.50;99.90
12436;DHT22;6282;51.440;6.938;2024-01-25T01:58:30;8.50;99.90
12436;DHT22;6282;51.440;6.938;2024-01-25T02:00:59;8.60;99.90
12436;DHT22;6282;51.440;6.938;2024-01-25T02:03:26;8.60;99.90
12436;DHT22;6282;51.440;6.938;2024-01-25T02:05:54;8.50;99.90
12436;DHT22;6282;51.440;6.938;2024-01-25T02:08:21;8.50;99.90
12436;DHT22;6282;51.440;6.938;2024-01-25T02:10:48;8.50;99.90
12436;DHT22;6282;51.440;6.938;2024-01-25T02:13:15;8.60;99.90
12436;DHT22;6282;51.440;6.938;2024-01-25T02:15:42;8.60;99.90
12436;DHT22;6282;51.440;6.938;2024-01-25T02:18:09;8.60;99.90
12436;DHT22;6282;51.440;6.938;2024-01-25T02:20:36;8.60;99.90
12436;DHT22;6282;51.440;6.938;2024-01-25T02:23:04;8.60;99.90
12436;DHT22;6282;51.440;6.938;2024-01-25T02:25:31;8.80;99.90
12436;DHT22;6282;51.440;6.938;2024-01-25T02:27:58;8.50;99.90
12436;DHT22;6282;51.440;6.938;2024-01-25T02:30:24;8.50;99.90
12436;DHT22;6282;51.440;6.938;2024-01-25T02:32:51;8.50;99.90
12436;DHT22;6282;51.440;6.938;2024-01-25T02:35:18;8.50;99.90
12436;DHT22;6282;51.440;6.938;2024-01-25T02:37:45;8.50;99.90
12436;DHT22;6282;51.440;6.938;2024-01-25T02:40:13;8.40;99.90
12436;DHT22;6282;51.440;6.938;2024-01-25T02:42:40;8.40;99.90
12436;DHT22;6282;51.440;6.938;2024-01-25T02:45:08;8.30;99.90
12436;DHT22;6282;51.440;6.938;2024-01-25T02:47:34;8.30;99.90
12436;DHT22;6282;51.440;6.938;2024-01-25T02:50:01;8.30;99.90
12436;DHT22;6282;51.440;6.938;2024-01-25T02:52:28;8.20;99.90
12436;DHT22;6282;51.440;6.938;2024-01-25T02:54:55;8.30;99.90
12436;DHT22;6282;51.440;6.938;2024-01-25T02:57:23;8.10;99.90
12436;DHT22;6282;51.440;6.938;2024-01-25T02:59:50;8.10;99.90
12436;DHT22;6282;51.440;6.938;2024-01-25T03:02:16;8.40;99.90
12436;DHT22;6282;51.440;6.938;2024-01-25T03:04:44;8.00;99.90
12436;DHT22;6282;51.440;6.938;2024-01-25T03:07:11;7.90;99.90
12436;DHT22;6282;51.440;6.938;2024-01-25T03:09:38;7.90;99.90
12436;DHT22;6282;51.440;6.938;2024-01-25T03:12:06;7.80;99.90
12436;DHT22;6282;51.440;6.938;2024-01-25T03:14:34;7.80;99.90
12436;DHT22;6282;51.440;6.938;2024-01-25T03:17:01;7.90;99.90
12436;DHT22;6282;51.440;6.938;2024-01-25T03:19:28;7.70;99.90
12436;DHT22;6282;51.440;6.938;2024-01-25T03:21:55;7.80;99.90
12436;DHT22;6282;51.440;6.938;2024-01-25T03:24:22;7.70;99.90
12436;DHT22;6282;51.440;6.938;2024-01-25T03:26:49;7.80;99.90
12436;DHT22;6282;51.440;6.938;2024-01-25T03:29:16;7.60;99.90
12436;DHT22;6282;51.440;6.938;2024-01-25T03:31:44;7.70;99.90
12436;DHT22;6282;51.440;6.938;2024-01-25T03:34:11;7.70;99.90
12436;DHT22;6282;51.440;6.938;2024-01-25T03:36:38;7.70;99.90
12436;DHT22;6282;51.440;6.938;2024-01-25T03:39:06;7.80;99.90
12436;DHT22;6282;51.440;6.938;2024-01-25T03:41:33;7.60;99.90
12436;DHT22;6282;51.440;6.938;2024-01-25T03:44:00;7.50;99.90
12436;DHT22;6282;51.440;6.938;2024-01-25T03:46:27;7.80;99.90
12436;DHT22;6282;51.440;6.938;2024-01-25T03:48:55;7.70;99.90
12436;DHT22;6282;51.440;6.938;2024-01-25T03:51:22;7.50;99.90
12436;DHT22;6282;51.440;6.938;2024-01-25T03:53:49;7.50;99.90
12436;DHT22;6282;51.440;6.938;2024-01-25T03:56:18;7.50;99.90
12436;DHT22;6282;51.440;6.938;2024-01-25T03:58:45;7.50;99.90
12436;DHT22;6282;51.440;6.938;2024-01-25T04:01:12;7.40;99.90
12436;DHT22;6282;51.440;6.938;2024-01-25T04:03:39;7.40;99.90
12436;DHT22;6282;51.440;6.938;2024-01-25T04:06:08;7.40;99.90
12436;DHT22;6282;51.440;6.938;2024-01-25T04:08:34;7.40;99.90
12436;DHT22;6282;51.440;6.938;2024-01-25T04:11:01;7.40;99.90
12436;DHT22;6282;51.440;6.938;2024-01-25T04:13:28;7.60;99.90
12436;DHT22;6282;51.440;6.938;2024-01-25T04:15:55;7.40;99.90
12436;DHT22;6282;51.440;6.938;2024-01-25T04:18:21;7.40;99.90
12436;DHT22;6282;51.440;6.938;2024-01-25T04:20:48;7.50;99.90
12436;DHT22;6282;51.440;6.938;2024-01-25T04:23:17;7.30;99.90
12436;DHT22;6282;51.440;6.938;2024-01-25T04:25:44;7.30;99.90
12436;DHT22;6282;51.440;6.938;2024-01-25T04:28:11;7.30;99.90
12436;DHT22;6282;51.440;6.938;2024-01-25T04:30:37;7.30;99.90
12436;DHT22;6282;51.440;6.938;2024-01-25T04:33:05;7.20;99.90
12436;DHT22;6282;51.440;6.938;2024-01-25T04:35:31;7.20;99.90
12436;DHT22;6282;51.440;6.938;2024-01-25T04:37:58;7.30;99.90
12436;DHT22;6282;51.440;6.938;2024-01-25T04:40:26;7.20;99.90
12436;DHT22;6282;51.440;6.938;2024-01-25T04:42:53;7.20;99.90
12436;DHT22;6282;51.440;6.938;2024-01-25T04:45:20;7.20;99.90
12436;DHT22;6282;51.440;6.938;2024-01-25T04:47:46;7.50;99.90
12436;DHT22;6282;51.440;6.938;2024-01-25T04:50:13;7.30;99.90
12436;DHT22;6282;51.440;6.938;2024-01-25T04:52:40;7.40;99.90
12436;DHT22;6282;51.440;6.938;2024-01-25T04:55:08;7.30;99.90
12436;DHT22;6282;51.440;6.938;2024-01-25T04:57:36;7.20;99.90
12436;DHT22;6282;51.440;6.938;2024-01-25T05:00:03;7.20;99.90
12436;DHT22;6282;51.440;6.938;2024-01-25T05:02:30;7.20;99.90
12436;DHT22;6282;51.440;6.938;2024-01-25T05:04:57;7.20;99.90
12436;DHT22;6282;51.440;6.938;2024-01-25T05:07:23;7.20;99.90
12436;DHT22;6282;51.440;6.938;2024-01-25T05:09:50;7.10;99.90
12436;DHT22;6282;51.440;6.938;2024-01-25T05:12:17;7.00;99.90
12436;DHT22;6282;51.440;6.938;2024-01-25T05:14:45;7.00;99.90
12436;DHT22;6282;51.440;6.938;2024-01-25T05:17:12;6.90;99.90
12436;DHT22;6282;51.440;6.938;2024-01-25T05:19:39;6.80;99.90
12436;DHT22;6282;51.440;6.938;2024-01-25T05:22:06;6.90;99.90
12436;DHT22;6282;51.440;6.938;2024-01-25T05:24:33;6.80;99.90
12436;DHT22;6282;51.440;6.938;2024-01-25T05:27:00;6.80;99.90
12436;DHT22;6282;51.440;6.938;2024-01-25T05:29:27;6.80;99.90
12436;DHT22;6282;51.440;6.938;2024-01-25T05:31:55;6.80;99.90
12436;DHT22;6282;51.440;6.938;2024-01-25T05:34:23;6.80;99.90
12436;DHT22;6282;51.440;6.938;2024-01-25T05:36:50;6.90;99.90
12436;DHT22;6282;51.440;6.938;2024-01-25T05:39:17;7.10;99.90
12436;DHT22;6282;51.440;6.938;2024-01-25T05:41:44;6.80;99.90
12436;DHT22;6282;51.440;6.938;2024-01-25T05:44:12;6.90;99.90
12436;DHT22;6282;51.440;6.938;2024-01-25T05:46:39;6.80;99.90
12436;DHT22;6282;51.440;6.938;2024-01-25T05:49:07;7.00;99.90
12436;DHT22;6282;51.440;6.938;2024-01-25T05:51:34;6.80;99.90
12436;DHT22;6282;51.440;6.938;2024-01-25T05:54:01;6.80;99.90
12436;DHT22;6282;51.440;6.938;2024-01-25T05:56:28;6.80;99.90
12436;DHT22;6282;51.440;6.938;2024-01-25T05:58:55;6.80;99.90
12436;DHT22;6282;51.440;6.938;2024-01-25T06:01:21;6.80;99.90
12436;DHT22;6282;51.440;6.938;2024-01-25T06:03:48;6.80;99.90
12436;DHT22;6282;51.440;6.938;2024-01-25T06:06:16;6.70;99.90
12436;DHT22;6282;51.440;6.938;2024-01-25T06:08:44;6.70;99.90
12436;DHT22;6282;51.440;6.938;2024-01-25T06:11:11;6.70;99.90
12436;DHT22;6282;51.440;6.938;2024-01-25T06:13:38;6.70;99.90
12436;DHT22;6282;51.440;6.938;2024-01-25T06:16:28;6.70;99.90
12436;DHT22;6282;51.440;6.938;2024-01-25T06:19:54;6.70;99.90
12436;DHT22;6282;51.440;6.938;2024-01-25T06:30:08;6.60;99.90
12436;DHT22;6282;51.440;6.938;2024-01-25T06:33:11;6.50;99.90
12436;DHT22;6282;51.440;6.938;2024-01-25T06:35:45;6.50;99.90
12436;DHT22;6282;51.440;6.938;2024-01-25T06:40:39;6.50;99.90
12436;DHT22;6282;51.440;6.938;2024-01-25T06:43:06;6.60;99.90
12436;DHT22;6282;51.440;6.938;2024-01-25T06:45:34;6.60;99.90
12436;DHT22;6282;51.440;6.938;2024-01-25T06:48:01;7.30;99.90
12436;DHT22;6282;51.440;6.938;2024-01-25T06:50:28;6.80;99.90
12436;DHT22;6282;51.440;6.938;2024-01-25T06:55:22;6.40;99.90
12436;DHT22;6282;51.440;6.938;2024-01-25T06:57:49;6.40;99.90
12436;DHT22;6282;51.440;6.938;2024-01-25T07:00:16;6.40;99.90
12436;DHT22;6282;51.440;6.938;2024-01-25T07:02:45;6.40;99.90
12436;DHT22;6282;51.440;6.938;2024-01-25T07:05:12;6.30;99.90
12436;DHT22;6282;51.440;6.938;2024-01-25T07:07:39;6.20;99.90
12436;DHT22;6282;51.440;6.938;2024-01-25T07:10:07;6.20;99.90
12436;DHT22;6282;51.440;6.938;2024-01-25T07:12:34;6.10;99.90
12436;DHT22;6282;51.440;6.938;2024-01-25T07:15:01;6.10;99.90
12436;DHT22;6282;51.440;6.938;2024-01-25T07:17:28;6.20;99.90
12436;DHT22;6282;51.440;6.938;2024-01-25T07:19:56;6.10;99.90
12436;DHT22;6282;51.440;6.938;2024-01-25T07:22:23;6.00;99.90
12436;DHT22;6282;51.440;6.938;2024-01-25T07:24:50;6.00;99.90
12436;DHT22;6282;51.440;6.938;2024-01-25T07:27:17;6.00;99.90
12436;DHT22;6282;51.440;6.938;2024-01-25T07:29:44;6.00;99.90
12436;DHT22;6282;51.440;6.938;2024-01-25T07:32:11;6.00;99.90
12436;DHT22;6282;51.440;6.938;2024-01-25T07:34:38;6.00;99.90
12436;DHT22;6282;51.440;6.938;2024-01-25T07:37:06;6.00;99.90
12436;DHT22;6282;51.440;6.938;2024-01-25T07:39:33;6.00;99.90
12436;DHT22;6282;51.440;6.938;2024-01-25T07:41:59;6.00;99.90
12436;DHT22;6282;51.440;6.938;2024-01-25T07:44:26;6.00;99.90
12436;DHT22;6282;51.440;6.938;2024-01-25T07:46:53;6.10;99.90
12436;DHT22;6282;51.440;6.938;2024-01-25T07:49:20;6.50;99.90
12436;DHT22;6282;51.440;6.938;2024-01-25T07:51:47;6.10;99.90
12436;DHT22;6282;51.440;6.938;2024-01-25T07:54:15;6.20;99.90
12436;DHT22;6282;51.440;6.938;2024-01-25T07:56:42;6.00;99.90
12436;DHT22;6282;51.440;6.938;2024-01-25T07:59:09;6.30;99.90
12436;DHT22;6282;51.440;6.938;2024-01-25T08:01:35;6.00;99.90
12436;DHT22;6282;51.440;6.938;2024-01-25T08:04:02;6.00;99.90
12436;DHT22;6282;51.440;6.938;2024-01-25T08:06:29;6.00;99.90
12436;DHT22;6282;51.440;6.938;2024-01-25T08:08:56;6.00;99.90
12436;DHT22;6282;51.440;6.938;2024-01-25T08:11:25;5.90;99.90
12436;DHT22;6282;51.440;6.938;2024-01-25T08:13:51;6.00;99.90
12436;DHT22;6282;51.440;6.938;2024-01-25T08:16:18;5.90;99.90
12436;DHT22;6282;51.440;6.938;2024-01-25T08:18:46;5.90;99.90
12436;DHT22;6282;51.440;6.938;2024-01-25T08:21:13;5.90;99.90
12436;DHT22;6282;51.440;6.938;2024-01-25T08:23:40;6.00;99.90
12436;DHT22;6282;51.440;6.938;2024-01-25T08:28:36;5.90;99.90
12436;DHT22;6282;51.440;6.938;2024-01-25T08:31:03;5.90;99.90
12436;DHT22;6282;51.440;6.938;2024-01-25T08:33:30;5.90;99.90
12436;DHT22;6282;51.440;6.938;2024-01-25T08:35:57;5.90;99.90
12436;DHT22;6282;51.440;6.938;2024-01-25T08:38:24;6.20;99.90
12436;DHT22;6282;51.440;6.938;2024-01-25T08:40:58;6.10;99.90
12436;DHT22;6282;51.440;6.938;2024-01-25T08:44:19;6.10;99.90
12436;DHT22;6282;51.440;6.938;2024-01-25T08:46:59;6.20;99.90
12436;DHT22;6282;51.440;6.938;2024-01-25T08:49:41;6.20;99.90
12436;DHT22;6282;51.440;6.938;2024-01-25T08:55:42;6.50;99.90
12436;DHT22;6282;51.440;6.938;2024-01-25T08:58:22;6.40;99.90
12436;DHT22;6282;51.440;6.938;2024-01-25T09:01:39;7.00;99.90
12436;DHT22;6282;51.440;6.938;2024-01-25T09:04:23;6.70;99.90
12436;DHT22;6282;51.440;6.938;2024-01-25T09:07:15;6.80;99.90
12436;DHT22;6282;51.440;6.938;2024-01-25T09:13:01;7.00;99.90
12436;DHT22;6282;51.440;6.938;2024-01-25T09:15:28;8.20;99.90
12436;DHT22;6282;51.440;6.938;2024-01-25T09:17:56;7.30;99.90
12436;DHT22;6282;51.440;6.938;2024-01-25T09:20:23;7.40;99.90
12436;DHT22;6282;51.440;6.938;2024-01-25T09:22:50;8.40;99.90
12436;DHT22;6282;51.440;6.938;2024-01-25T09:25:34;7.40;99.90
12436;DHT22;6282;51.440;6.938;2024-01-25T09:28:01;9.20;99.90
12436;DHT22;6282;51.440;6.938;2024-01-25T09:30:29;7.70;99.90
12436;DHT22;6282;51.440;6.938;2024-01-25T09:32:58;7.00;99.90
12436;DHT22;6282;51.440;6.938;2024-01-25T09:35:24;8.40;99.90
12436;DHT22;6282;51.440;6.938;2024-01-25T09:37:52;7.50;99.90
12436;DHT22;6282;51.440;6.938;2024-01-25T09:45:17;6.90;99.90
12436;DHT22;6282;51.440;6.938;2024-01-25T09:50:12;7.00;99.90
12436;DHT22;6282;51.440;6.938;2024-01-25T09:52:39;8.00;99.90
12436;DHT22;6282;51.440;6.938;2024-01-25T09:55:11;7.00;99.90
12436;DHT22;6282;51.440;6.938;2024-01-25T09:57:41;7.00;99.90
12436;DHT22;6282;51.440;6.938;2024-01-25T10:00:11;7.10;99.90
12436;DHT22;6282;51.440;6.938;2024-01-25T10:02:39;7.30;99.90
12436;DHT22;6282;51.440;6.938;2024-01-25T10:05:06;7.40;99.90
12436;DHT22;6282;51.440;6.938;2024-01-25T10:07:38;7.40;99.90
12436;DHT22;6282;51.440;6.938;2024-01-25T10:10:05;7.30;99.90
12436;DHT22;6282;51.440;6.938;2024-01-25T10:12:32;7.30;99.90
12436;DHT22;6282;51.440;6.938;2024-01-25T10:14:59;7.40;99.90
12436;DHT22;6282;51.440;6.938;2024-01-25T10:17:27;7.70;99.90
12436;DHT22;6282;51.440;6.938;2024-01-25T10:19:54;7.80;99.90
12436;DHT22;6282;51.440;6.938;2024-01-25T10:22:21;7.60;99.90
12436;DHT22;6282;51.440;6.938;2024-01-25T10:24:49;7.80;99.90
12436;DHT22;6282;51.440;6.938;2024-01-25T10:27:16;8.40;99.90
12436;DHT22;6282;51.440;6.938;2024-01-25T10:32:11;7.80;99.90
12436;DHT22;6282;51.440;6.938;2024-01-25T10:34:39;7.80;99.90
12436;DHT22;6282;51.440;6.938;2024-01-25T10:37:06;7.80;99.90
12436;DHT22;6282;51.440;6.938;2024-01-25T10:39:34;7.90;99.90
12436;DHT22;6282;51.440;6.938;2024-01-25T10:42:02;7.80;99.90
12436;DHT22;6282;51.440;6.938;2024-01-25T10:44:29;7.70;99.90
12436;DHT22;6282;51.440;6.938;2024-01-25T10:46:56;8.80;99.90
12436;DHT22;6282;51.440;6.938;2024-01-25T10:49:24;7.80;99.90
12436;DHT22;6282;51.440;6.938;2024-01-25T10:51:52;8.00;99.90
12436;DHT22;6282;51.440;6.938;2024-01-25T10:54:20;7.90;99.90
12436;DHT22;6282;51.440;6.938;2024-01-25T10:56:47;7.80;99.90
12436;DHT22;6282;51.440;6.938;2024-01-25T10:59:15;7.80;99.90
12436;DHT22;6282;51.440;6.938;2024-01-25T11:01:43;8.10;99.90
12436;DHT22;6282;51.440;6.938;2024-01-25T11:04:15;8.20;99.90
12436;DHT22;6282;51.440;6.938;2024-01-25T11:06:44;8.40;99.90
12436;DHT22;6282;51.440;6.938;2024-01-25T11:09:17;8.60;99.90
12436;DHT22;6282;51.440;6.938;2024-01-25T11:11:46;9.30;99.90
12436;DHT22;6282;51.440;6.938;2024-01-25T11:14:15;8.40;99.90
12436;DHT22;6282;51.440;6.938;2024-01-25T11:16:43;8.50;99.90
12436;DHT22;6282;51.440;6.938;2024-01-25T11:19:16;8.40;99.90
12436;DHT22;6282;51.440;6.938;2024-01-25T11:21:44;8.60;99.90
12436;DHT22;6282;51.440;6.938;2024-01-25T11:24:12;8.60;99.90
12436;DHT22;6282;51.440;6.938;2024-01-25T11:26:40;8.70;99.90
12436;DHT22;6282;51.440;6.938;2024-01-25T11:29:06;8.60;99.90
12436;DHT22;6282;51.440;6.938;2024-01-25T11:31:36;8.80;99.90
12436;DHT22;6282;51.440;6.938;2024-01-25T11:34:03;8.80;99.90
12436;DHT22;6282;51.440;6.938;2024-01-25T11:36:30;8.70;99.90
12436;DHT22;6282;51.440;6.938;2024-01-25T11:38:57;9.00;99.90
12436;DHT22;6282;51.440;6.938;2024-01-25T11:41:24;9.30;99.90
12436;DHT22;6282;51.440;6.938;2024-01-25T11:43:51;8.90;99.90
12436;DHT22;6282;51.440;6.938;2024-01-25T11:46:18;9.20;99.90
12436;DHT22;6282;51.440;6.938;2024-01-25T11:48:46;8.90;99.90
12436;DHT22;6282;51.440;6.938;2024-01-25T11:51:13;9.10;99.90
12436;DHT22;6282;51.440;6.938;2024-01-25T11:53:40;8.90;99.90
12436;DHT22;6282;51.440;6.938;2024-01-25T11:56:09;9.20;99.90
12436;DHT22;6282;51.440;6.938;2024-01-25T11:58:37;9.20;99.90
12436;DHT22;6282;51.440;6.938;2024-01-25T12:01:05;9.10;99.90
12436;DHT22;6282;51.440;6.938;2024-01-25T12:03:34;9.10;99.90
12436;DHT22;6282;51.440;6.938;2024-01-25T12:06:03;9.40;99.90
12436;DHT22;6282;51.440;6.938;2024-01-25T12:08:32;9.10;99.90
12436;DHT22;6282;51.440;6.938;2024-01-25T12:11:03;9.10;99.90
12436;DHT22;6282;51.440;6.938;2024-01-25T12:13:32;10.30;99.90
12436;DHT22;6282;51.440;6.938;2024-01-25T12:16:00;10.10;99.90
12436;DHT22;6282;51.440;6.938;2024-01-25T12:18:28;10.50;99.90
12436;DHT22;6282;51.440;6.938;2024-01-25T12:20:57;9.10;99.90
12436;DHT22;6282;51.440;6.938;2024-01-25T12:23:31;10.60;99.90
12436;DHT22;6282;51.440;6.938;2024-01-25T12:26:00;8.40;99.90
12436;DHT22;6282;51.440;6.938;2024-01-25T12:28:27;10.40;99.90
12436;DHT22;6282;51.440;6.938;2024-01-25T12:33:21;9.30;99.90
12436;DHT22;6282;51.440;6.938;2024-01-25T12:38:15;9.20;99.90
12436;DHT22;6282;51.440;6.938;2024-01-25T12:40:46;9.10;99.90
12436;DHT22;6282;51.440;6.938;2024-01-25T12:45:40;9.10;99.90
12436;DHT22;6282;51.440;6.938;2024-01-25T12:48:09;8.90;99.90
12436;DHT22;6282;51.440;6.938;2024-01-25T12:50:36;8.90;99.90
12436;DHT22;6282;51.440;6.938;2024-01-25T12:53:03;9.00;99.90
12436;DHT22;6282;51.440;6.938;2024-01-25T12:55:30;9.00;99.90
12436;DHT22;6282;51.440;6.938;2024-01-25T12:57:59;9.00;99.90
12436;DHT22;6282;51.440;6.938;2024-01-25T13:00:26;9.10;99.90
12436;DHT22;6282;51.440;6.938;2024-01-25T13:02:53;9.00;99.90
12436;DHT22;6282;51.440;6.938;2024-01-25T13:05:22;9.10;99.90
12436;DHT22;6282;51.440;6.938;2024-01-25T13:07:49;9.30;99.90
12436;DHT22;6282;51.440;6.938;2024-01-25T13:10:16;9.40;99.90
12436;DHT22;6282;51.440;6.938;2024-01-25T13:12:42;9.50;99.90
12436;DHT22;6282;51.440;6.938;2024-01-25T13:15:11;9.30;99.90
12436;DHT22;6282;51.440;6.938;2024-01-25T13:17:38;9.10;99.90
12436;DHT22;6282;51.440;6.938;2024-01-25T13:20:08;8.90;99.90
12436;DHT22;6282;51.440;6.938;2024-01-25T13:22:49;8.90;99.90
12436;DHT22;6282;51.440;6.938;2024-01-25T13:25:16;9.60;99.90
12436;DHT22;6282;51.440;6.938;2024-01-25T13:27:43;8.90;99.90
12436;DHT22;6282;51.440;6.938;2024-01-25T13:30:12;8.90;99.90
12436;DHT22;6282;51.440;6.938;2024-01-25T13:32:40;8.90;99.90
12436;DHT22;6282;51.440;6.938;2024-01-25T13:35:07;9.00;99.90
12436;DHT22;6282;51.440;6.938;2024-01-25T13:37:33;9.00;99.90
12436;DHT22;6282;51.440;6.938;2024-01-25T13:40:00;9.10;99.90
12436;DHT22;6282;51.440;6.938;2024-01-25T13:42:29;8.90;99.90
12436;DHT22;6282;51.440;6.938;2024-01-25T13:44:56;8.90;99.90
12436;DHT22;6282;51.440;6.938;2024-01-25T13:47:24;8.90;99.90
12436;DHT22;6282;51.440;6.938;2024-01-25T13:49:51;8.80;99.90
12436;DHT22;6282;51.440;6.938;2024-01-25T13:52:18;8.90;99.90
12436;DHT22;6282;51.440;6.938;2024-01-25T13:54:46;9.70;99.90
12436;DHT22;6282;51.440;6.938;2024-01-25T13:57:13;8.80;99.90
12436;DHT22;6282;51.440;6.938;2024-01-25T13:59:40;8.80;99.90
12436;DHT22;6282;51.440;6.938;2024-01-25T14:02:07;8.80;99.90
12436;DHT22;6282;51.440;6.938;2024-01-25T14:04:35;8.80;99.90
12436;DHT22;6282;51.440;6.938;2024-01-25T14:07:02;8.80;99.90
12436;DHT22;6282;51.440;6.938;2024-01-25T14:09:29;8.80;99.90
12436;DHT22;6282;51.440;6.938;2024-01-25T14:11:56;8.90;99.90
12436;DHT22;6282;51.440;6.938;2024-01-25T14:14:23;8.90;99.90
12436;DHT22;6282;51.440;6.938;2024-01-25T14:16:50;9.00;99.90
12436;DHT22;6282;51.440;6.938;2024-01-25T14:19:17;9.30;99.90
12436;DHT22;6282;51.440;6.938;2024-01-25T14:21:47;9.70;99.90
12436;DHT22;6282;51.440;6.938;2024-01-25T14:24:14;8.20;99.90
12436;DHT22;6282;51.440;6.938;2024-01-25T14:26:41;9.00;99.90
12436;DHT22;6282;51.440;6.938;2024-01-25T14:29:08;8.90;99.90
12436;DHT22;6282;51.440;6.938;2024-01-25T14:31:35;10.90;99.90
12436;DHT22;6282;51.440;6.938;2024-01-25T14:34:02;10.20;99.90
12436;DHT22;6282;51.440;6.938;2024-01-25T14:36:29;9.90;99.90
12436;DHT22;6282;51.440;6.938;2024-01-25T14:38:57;9.10;99.90
12436;DHT22;6282;51.440;6.938;2024-01-25T14:43:51;9.20;99.90
12436;DHT22;6282;51.440;6.938;2024-01-25T14:46:18;9.60;99.90
12436;DHT22;6282;51.440;6.938;2024-01-25T14:48:45;9.20;99.90
12436;DHT22;6282;51.440;6.938;2024-01-25T14:51:12;9.10;99.90
12436;DHT22;6282;51.440;6.938;2024-01-25T14:53:39;9.10;99.90
12436;DHT22;6282;51.440;6.938;2024-01-25T14:56:07;9.10;99.90
12436;DHT22;6282;51.440;6.938;2024-01-25T14:58:35;9.10;99.90
12436;DHT22;6282;51.440;6.938;2024-01-25T15:01:01;9.20;99.90
12436;DHT22;6282;51.440;6.938;2024-01-25T15:03:29;10.10;99.90
12436;DHT22;6282;51.440;6.938;2024-01-25T15:05:56;9.50;99.90
12436;DHT22;6282;51.440;6.938;2024-01-25T15:08:23;9.10;99.90
12436;DHT22;6282;51.440;6.938;2024-01-25T15:10:50;9.10;99.90
12436;DHT22;6282;51.440;6.938;2024-01-25T15:13:19;9.30;99.90
12436;DHT22;6282;51.440;6.938;2024-01-25T15:15:45;9.10;99.90
12436;DHT22;6282;51.440;6.938;2024-01-25T15:18:12;9.10;99.90
12436;DHT22;6282;51.440;6.938;2024-01-25T15:20:39;9.10;99.90
12436;DHT22;6282;51.440;6.938;2024-01-25T15:23:06;9.30;99.90
12436;DHT22;6282;51.440;6.938;2024-01-25T15:25:34;9.20;99.90
12436;DHT22;6282;51.440;6.938;2024-01-25T15:28:01;9.20;99.90
12436;DHT22;6282;51.440;6.938;2024-01-25T15:30:29;9.10;99.90
12436;DHT22;6282;51.440;6.938;2024-01-25T15:32:56;9.00;99.90
12436;DHT22;6282;51.440;6.938;2024-01-25T15:35:23;9.00;99.90
12436;DHT22;6282;51.440;6.938;2024-01-25T15:37:49;9.10;99.90
12436;DHT22;6282;51.440;6.938;2024-01-25T15:40:17;9.10;99.90
12436;DHT22;6282;51.440;6.938;2024-01-25T15:42:44;9.10;99.90
12436;DHT22;6282;51.440;6.938;2024-01-25T15:45:11;9.10;99.90
12436;DHT22;6282;51.440;6.938;2024-01-25T15:47:39;9.20;99.90
12436;DHT22;6282;51.440;6.938;2024-01-25T15:50:07;9.30;99.90
12436;DHT22;6282;51.440;6.938;2024-01-25T15:52:34;9.30;99.90
12436;DHT22;6282;51.440;6.938;2024-01-25T15:55:01;9.30;99.90
12436;DHT22;6282;51.440;6.938;2024-01-25T15:57:29;9.30;99.90
12436;DHT22;6282;51.440;6.938;2024-01-25T15:59:56;9.30;99.90
12436;DHT22;6282;51.440;6.938;2024-01-25T16:02:23;9.30;99.90
12436;DHT22;6282;51.440;6.938;2024-01-25T16:04:51;9.30;99.90
12436;DHT22;6282;51.440;6.938;2024-01-25T16:07:18;9.70;99.90
12436;DHT22;6282;51.440;6.938;2024-01-25T16:09:45;9.30;99.90
12436;DHT22;6282;51.440;6.938;2024-01-25T16:12:12;9.30;99.90
12436;DHT22;6282;51.440;6.938;2024-01-25T16:14:39;9.30;99.90
12436;DHT22;6282;51.440;6.938;2024-01-25T16:17:07;9.30;99.90
12436;DHT22;6282;51.440;6.938;2024-01-25T16:19:38;9.30;99.90
12436;DHT22;6282;51.440;6.938;2024-01-25T16:22:07;9.30;99.90
12436;DHT22;6282;51.440;6.938;2024-01-25T16:24:34;9.30;99.90
12436;DHT22;6282;51.440;6.938;2024-01-25T16:27:00;9.40;99.90
12436;DHT22;6282;51.440;6.938;2024-01-25T16:29:27;9.30;99.90
12436;DHT22;6282;51.440;6.938;2024-01-25T16:31:54;9.30;99.90
12436;DHT22;6282;51.440;6.938;2024-01-25T16:34:21;9.30;99.90
12436;DHT22;6282;51.440;6.938;2024-01-25T16:36:48;9.40;99.90
12436;DHT22;6282;51.440;6.938;2024-01-25T16:39:16;9.40;99.90
12436;DHT22;6282;51.440;6.938;2024-01-25T16:41:43;9.40;99.90
12436;DHT22;6282;51.440;6.938;2024-01-25T16:44:10;9.50;99.90
12436;DHT22;6282;51.440;6.938;2024-01-25T16:46:36;9.70;99.90
12436;DHT22;6282;51.440;6.938;2024-01-25T16:49:04;9.70;99.90